Time;durP1;ratioP1;P1;durP2;ratioP2;P2;SDS_P1;SDS_P2;PMS_P1;PMS_P2;Temp;Humidity;BMP_temperature;BMP_pressure;BME280_temperature;BME280_humidity;BME280_pressure;Samples;Min_cycle;Max_cycle;Signal;HPM_P1;HPM_P2
2022/04/03 00:00:36;;;;;;;0.80;0.80;;;-2.90;99.90;;;;;;4996588;28;20207;-85
2022/04/03 00:03:04;;;;;;;0.80;0.80;;;-2.90;99.90;;;;;;4997620;28;20199;-85
2022/04/03 00:05:33;;;;;;;0.70;0.70;;;-3.00;99.90;;;;;;4997542;28;20333;-86
2022/04/03 00:07:59;;;;;;;0.75;0.75;;;-3.00;99.90;;;;;;5014317;28;20209;-86
2022/04/03 00:10:25;;;;;;;0.70;0.70;;;-2.90;99.90;;;;;;4997283;28;20219;-85
2022/04/03 00:12:51;;;;;;;0.70;0.70;;;-2.90;99.90;;;;;;4996915;28;20209;-85
2022/04/03 00:15:17;;;;;;;0.80;0.80;;;-2.90;99.90;;;;;;4996613;28;20670;-85
2022/04/03 00:17:43;;;;;;;0.90;0.90;;;-2.90;99.90;;;;;;4997359;28;20664;-86
2022/04/03 00:20:11;;;;;;;0.70;0.70;;;-2.90;99.90;;;;;;4997521;28;20202;-84
2022/04/03 00:22:36;;;;;;;0.80;0.80;;;-3.00;99.90;;;;;;4997310;28;20728;-85
2022/04/03 00:25:03;;;;;;;0.80;0.80;;;-3.00;99.90;;;;;;4997219;28;20199;-84
2022/04/03 00:27:29;;;;;;;0.70;0.70;;;-3.00;99.90;;;;;;4997115;28;20203;-85
2022/04/03 00:29:56;;;;;;;0.80;0.80;;;-3.00;99.90;;;;;;4993854;28;20208;-84
2022/04/03 00:32:22;;;;;;;0.82;0.82;;;-3.00;99.90;;;;;;4977282;28;20191;-84
2022/04/03 00:34:48;;;;;;;0.80;0.80;;;-3.00;99.90;;;;;;4977548;28;20207;-85
2022/04/03 00:37:13;;;;;;;0.90;0.90;;;-3.00;99.90;;;;;;4977531;28;20689;-84
2022/04/03 00:39:39;;;;;;;0.70;0.70;;;-2.90;99.90;;;;;;4977697;28;20277;-85
2022/04/03 00:42:09;;;;;;;0.80;0.80;;;-3.00;99.90;;;;;;4977686;28;20214;-85
2022/04/03 00:44:35;;;;;;;0.70;0.70;;;-2.90;99.90;;;;;;4978976;28;20196;-84
2022/04/03 00:47:03;;;;;;;0.70;0.70;;;-2.90;99.90;;;;;;4996472;28;20195;-85
2022/04/03 00:49:30;;;;;;;0.60;0.60;;;-3.00;99.90;;;;;;4995587;28;20215;-85
2022/04/03 00:51:57;;;;;;;0.90;0.90;;;-3.10;99.90;;;;;;4996866;28;20222;-85
2022/04/03 00:54:22;;;;;;;0.80;0.80;;;-3.20;99.90;;;;;;4996781;28;20203;-86
2022/04/03 00:56:49;;;;;;;0.70;0.70;;;-3.20;99.90;;;;;;4997058;28;20226;-86
2022/04/03 00:59:15;;;;;;;0.80;0.80;;;-3.30;99.90;;;;;;5014424;28;20729;-86
2022/04/03 01:01:44;;;;;;;0.75;0.75;;;-3.30;99.90;;;;;;5013523;28;20286;-87
2022/04/03 01:04:10;;;;;;;0.80;0.80;;;-3.40;99.90;;;;;;4997486;28;20203;-86
2022/04/03 01:06:37;;;;;;;0.75;0.75;;;-3.40;99.90;;;;;;5014834;28;20752;-86
2022/04/03 01:09:03;;;;;;;0.70;0.70;;;-3.50;99.90;;;;;;4997194;28;20310;-86
2022/04/03 01:11:31;;;;;;;0.80;0.80;;;-3.50;99.90;;;;;;4997535;28;20234;-86
2022/04/03 01:13:57;;;;;;;0.77;0.77;;;-3.40;99.90;;;;;;4997331;28;20187;-87
2022/04/03 01:16:24;;;;;;;0.80;0.80;;;-3.30;99.90;;;;;;4996697;28;20282;-87
2022/04/03 01:18:50;;;;;;;0.70;0.70;;;-3.40;99.90;;;;;;4996117;28;20294;-87
2022/04/03 01:21:17;;;;;;;0.80;0.80;;;-3.40;99.90;;;;;;5013052;28;20237;-86
2022/04/03 01:23:44;;;;;;;0.88;0.88;;;-3.40;99.90;;;;;;4995882;28;20226;-87
2022/04/03 01:26:09;;;;;;;0.70;0.70;;;-3.30;99.90;;;;;;4996127;28;20215;-87
2022/04/03 01:28:35;;;;;;;0.70;0.70;;;-3.40;99.90;;;;;;4995484;28;20302;-87
2022/04/03 01:31:01;;;;;;;0.70;0.70;;;-3.40;99.90;;;;;;4993086;28;20306;-87
2022/04/03 01:33:27;;;;;;;0.68;0.68;;;-3.40;99.90;;;;;;4977850;28;20571;-87
2022/04/03 01:35:53;;;;;;;0.73;0.73;;;-3.50;99.90;;;;;;4978405;28;20192;-87
2022/04/03 01:38:18;;;;;;;0.70;0.70;;;-3.50;99.90;;;;;;4993897;28;20196;-86
2022/04/03 01:40:44;;;;;;;0.70;0.70;;;-3.60;99.90;;;;;;4996031;28;20230;-87
2022/04/03 01:43:10;;;;;;;0.80;0.80;;;-3.60;99.90;;;;;;4997656;28;20310;-86
2022/04/03 01:45:38;;;;;;;0.70;0.70;;;-3.70;99.90;;;;;;4997325;28;20597;-87
2022/04/03 01:48:05;;;;;;;0.80;0.80;;;-3.70;99.90;;;;;;4996584;28;20227;-87
2022/04/03 01:50:31;;;;;;;0.80;0.80;;;-3.80;99.90;;;;;;4996536;28;20211;-87
2022/04/03 01:52:57;;;;;;;0.80;0.80;;;-3.90;99.90;;;;;;4996491;28;20191;-87
2022/04/03 01:55:24;;;;;;;0.88;0.88;;;-3.90;99.90;;;;;;5014073;28;20198;-87
2022/04/03 01:57:50;;;;;;;0.90;0.90;;;-3.80;99.90;;;;;;4996344;28;20268;-87
2022/04/03 02:00:16;;;;;;;0.70;0.70;;;-3.80;99.90;;;;;;4998260;28;20286;-87
2022/04/03 02:02:42;;;;;;;0.80;0.80;;;-3.80;99.90;;;;;;5033622;28;20201;-87
2022/04/03 02:05:09;;;;;;;0.90;0.90;;;-3.80;99.90;;;;;;5020516;28;20202;-88
2022/04/03 02:07:35;;;;;;;0.80;0.80;;;-3.90;99.90;;;;;;5020808;28;20206;-87
2022/04/03 02:10:01;;;;;;;0.80;0.80;;;-3.90;99.90;;;;;;5020667;28;20241;-87
2022/04/03 02:12:27;;;;;;;0.73;0.73;;;-3.90;99.90;;;;;;5004969;28;20210;-87
2022/04/03 02:14:53;;;;;;;0.90;0.90;;;-4.00;99.90;;;;;;5000533;28;20199;-87
2022/04/03 02:17:18;;;;;;;0.70;0.70;;;-4.10;99.90;;;;;;4999517;28;20191;-86
2022/04/03 02:19:44;;;;;;;0.80;0.80;;;-4.20;99.90;;;;;;4999218;28;20199;-87
2022/04/03 02:22:10;;;;;;;0.80;0.80;;;-4.30;99.90;;;;;;5015794;28;20234;-87
2022/04/03 02:24:35;;;;;;;0.80;0.80;;;-4.30;99.90;;;;;;4999445;28;20679;-87
2022/04/03 02:27:02;;;;;;;0.70;0.70;;;-4.30;99.90;;;;;;4999471;28;20241;-86
2022/04/03 02:29:27;;;;;;;0.90;0.90;;;-4.20;99.90;;;;;;4998974;28;20370;-87
2022/04/03 02:31:53;;;;;;;0.80;0.80;;;-4.10;99.90;;;;;;4999406;28;20286;-85
2022/04/03 02:34:19;;;;;;;0.80;0.80;;;-4.10;99.90;;;;;;4999945;28;20745;-85
2022/04/03 02:51:01;;;;;;;0.88;0.88;;;-4.20;99.90;;;;;;4879745;29;20261;-86
2022/04/03 02:53:45;;;;;;;0.70;0.70;;;-4.20;99.90;;;;;;4898814;29;20229;-87
2022/04/03 02:56:11;;;;;;;1.00;1.00;;;-4.30;99.90;;;;;;4956756;29;20272;-87
2022/04/03 02:58:37;;;;;;;0.90;0.90;;;-4.30;99.90;;;;;;4988778;28;20211;-87
2022/04/03 03:01:11;;;;;;;0.82;0.82;;;-4.20;99.90;;;;;;4999650;28;20658;-87
2022/04/03 03:03:48;;;;;;;0.80;0.80;;;-4.30;99.90;;;;;;5006741;28;20653;-87
2022/04/03 03:06:37;;;;;;;0.82;0.82;;;-4.30;99.90;;;;;;5016335;28;20205;-86
2022/04/03 03:09:14;;;;;;;0.90;0.90;;;-4.40;99.90;;;;;;5015391;28;20219;-86
2022/04/03 03:11:46;;;;;;;0.90;0.90;;;-4.40;99.90;;;;;;5003681;28;20229;-86
2022/04/03 03:14:15;;;;;;;0.80;0.80;;;-4.50;99.90;;;;;;4997343;28;20223;-85
2022/04/03 03:16:41;;;;;;;0.80;0.80;;;-4.60;99.90;;;;;;5016506;28;20286;-87
2022/04/03 03:19:08;;;;;;;0.80;0.80;;;-4.60;99.90;;;;;;4999399;28;20266;-87
2022/04/03 03:21:37;;;;;;;0.80;0.80;;;-4.60;99.90;;;;;;4999047;28;20298;-87
2022/04/03 03:24:03;;;;;;;0.80;0.80;;;-4.60;99.90;;;;;;4999634;28;20211;-87
2022/04/03 03:27:09;;;;;;;0.82;0.82;;;-4.60;99.90;;;;;;5018031;28;20728;-87
2022/04/03 03:29:53;;;;;;;0.70;0.70;;;-4.60;99.90;;;;;;5016357;28;20295;-86
2022/04/03 03:32:32;;;;;;;0.82;0.82;;;-4.60;99.90;;;;;;4998875;28;20764;-87
2022/04/03 03:34:58;;;;;;;0.90;0.90;;;-4.50;99.90;;;;;;5017138;28;20204;-87
2022/04/03 03:37:24;;;;;;;0.90;0.90;;;-4.50;99.90;;;;;;5000091;28;20245;-87
2022/04/03 03:39:49;;;;;;;0.90;0.90;;;-4.50;99.90;;;;;;4999890;28;20561;-86
2022/04/03 03:42:15;;;;;;;0.85;0.85;;;-4.50;99.90;;;;;;4998841;28;20611;-85
2022/04/03 03:44:41;;;;;;;0.77;0.77;;;-4.40;99.90;;;;;;4999262;28;20202;-85
2022/04/03 03:47:10;;;;;;;0.80;0.80;;;-4.40;99.90;;;;;;4998714;28;20206;-86
2022/04/03 03:49:36;;;;;;;0.80;0.80;;;-4.30;99.90;;;;;;4997978;28;20211;-86
2022/04/03 03:52:12;;;;;;;0.80;0.80;;;-4.40;99.90;;;;;;5016027;28;20201;-86
2022/04/03 03:54:37;;;;;;;0.82;0.82;;;-4.40;99.90;;;;;;4997814;28;20866;-86
2022/04/03 03:57:03;;;;;;;0.70;0.70;;;-4.40;99.90;;;;;;4998370;28;20195;-87
2022/04/03 03:59:29;;;;;;;0.90;0.90;;;-4.50;99.90;;;;;;4997903;28;20573;-86
2022/04/03 04:01:55;;;;;;;0.90;0.90;;;-4.60;99.90;;;;;;4997837;28;20205;-87
2022/04/03 04:04:21;;;;;;;0.88;0.88;;;-4.70;99.90;;;;;;4998323;28;20198;-86
2022/04/03 04:06:48;;;;;;;0.70;0.70;;;-4.80;99.90;;;;;;4998006;28;20204;-86
2022/04/03 04:09:14;;;;;;;0.80;0.80;;;-4.90;99.90;;;;;;4996182;28;20270;-85
2022/04/03 04:11:40;;;;;;;0.80;0.80;;;-4.90;99.90;;;;;;4987809;28;20624;-86
2022/04/03 04:14:14;;;;;;;0.90;0.90;;;-5.00;99.90;;;;;;4998766;28;20249;-86
2022/04/03 04:16:40;;;;;;;0.80;0.80;;;-5.10;99.90;;;;;;5014569;28;20239;-87
2022/04/03 04:19:06;;;;;;;0.80;0.80;;;-5.20;99.90;;;;;;5015707;28;20193;-87
2022/04/03 04:21:32;;;;;;;1.00;1.00;;;-5.20;99.90;;;;;;4998546;28;20198;-86
2022/04/03 04:24:34;;;;;;;0.90;0.90;;;-5.30;99.90;;;;;;4998202;28;20261;-86
2022/04/03 04:27:00;;;;;;;0.90;0.90;;;-5.40;99.90;;;;;;4920380;29;20230;-85
2022/04/03 04:29:25;;;;;;;0.80;0.80;;;-5.40;99.90;;;;;;4918346;29;20225;-86
2022/04/03 04:31:51;;;;;;;0.70;0.70;;;-5.40;99.90;;;;;;4901969;29;20251;-86
2022/04/03 04:34:17;;;;;;;0.90;0.90;;;-5.30;99.90;;;;;;4917452;29;20210;-86
2022/04/03 04:36:43;;;;;;;0.90;0.90;;;-5.20;99.90;;;;;;4901816;29;20204;-86
2022/04/03 04:39:11;;;;;;;0.90;0.90;;;-5.10;99.90;;;;;;4917147;29;20701;-86
2022/04/03 04:41:37;;;;;;;0.80;0.80;;;-5.00;99.90;;;;;;4916427;29;20214;-86
2022/04/03 04:44:02;;;;;;;0.90;0.90;;;-4.90;99.90;;;;;;4901173;29;20282;-87
2022/04/03 04:46:28;;;;;;;0.77;0.77;;;-4.80;99.90;;;;;;4907109;29;20286;-86
2022/04/03 04:48:57;;;;;;;0.80;0.80;;;-4.70;99.90;;;;;;4919623;29;20225;-86
2022/04/03 04:51:22;;;;;;;0.80;0.80;;;-4.70;99.90;;;;;;4919469;29;20232;-86
2022/04/03 04:53:48;;;;;;;0.80;0.80;;;-4.70;99.90;;;;;;4920193;29;20265;-86
2022/04/03 04:56:14;;;;;;;0.80;0.80;;;-4.60;99.90;;;;;;4936544;28;20707;-86
2022/04/03 04:58:40;;;;;;;0.80;0.80;;;-4.50;99.90;;;;;;4920119;29;20206;-86
2022/04/03 05:01:05;;;;;;;0.80;0.80;;;-4.50;99.90;;;;;;4964169;28;20203;-85
2022/04/03 05:03:31;;;;;;;0.80;0.80;;;-4.30;99.90;;;;;;5015047;28;20210;-86
2022/04/03 05:05:57;;;;;;;0.90;0.90;;;-4.20;99.90;;;;;;4997031;28;20241;-86
2022/04/03 05:08:30;;;;;;;0.73;0.73;;;-4.10;99.90;;;;;;4994644;28;20228;-86
2022/04/03 05:11:13;;;;;;;0.80;0.80;;;-3.70;99.90;;;;;;5014483;28;20215;-86
2022/04/03 05:13:39;;;;;;;0.88;0.88;;;-3.50;99.90;;;;;;4996540;28;20233;-86
2022/04/03 05:16:06;;;;;;;0.63;0.63;;;-3.30;99.90;;;;;;4996587;28;20202;-85
2022/04/03 05:18:32;;;;;;;0.90;0.90;;;-3.30;99.90;;;;;;4997086;28;20350;-86
2022/04/03 05:20:57;;;;;;;0.70;0.70;;;-3.20;99.90;;;;;;4997851;28;20566;-86
2022/04/03 05:23:56;;;;;;;0.75;0.75;;;-3.10;99.90;;;;;;4996715;28;20249;-86
2022/04/03 05:26:22;;;;;;;0.90;0.90;;;-3.00;99.90;;;;;;4980933;28;20276;-86
2022/04/03 05:28:48;;;;;;;0.70;0.70;;;-3.00;99.90;;;;;;4996974;28;20570;-86
2022/04/03 05:31:17;;;;;;;0.70;0.70;;;-3.00;99.90;;;;;;4993442;28;20206;-86
2022/04/03 05:33:58;;;;;;;0.80;0.80;;;-3.00;99.90;;;;;;4976740;28;20195;-87
2022/04/03 05:36:27;;;;;;;0.75;0.75;;;-3.00;99.90;;;;;;4995119;28;20187;-86
2022/04/03 05:39:05;;;;;;;1.00;1.00;;;-3.00;99.90;;;;;;4980842;28;20195;-86
2022/04/03 05:41:32;;;;;;;0.80;0.80;;;-3.00;99.90;;;;;;4981422;28;20202;-87
2022/04/03 05:44:17;;;;;;;4.38;1.58;;;-3.00;99.90;;;;;;4997224;28;20203;-86
2022/04/03 05:46:43;;;;;;;0.88;0.88;;;-3.00;99.90;;;;;;5000812;28;20612;-86
2022/04/03 05:49:09;;;;;;;0.70;0.70;;;-2.90;99.90;;;;;;5000584;28;20294;-87
2022/04/03 05:51:35;;;;;;;1.35;1.25;;;-2.80;99.90;;;;;;5000891;28;20217;-86
2022/04/03 05:54:26;;;;;;;0.80;0.80;;;-2.60;99.90;;;;;;5000847;28;20190;-87
2022/04/03 05:57:01;;;;;;;0.70;0.70;;;-2.30;99.90;;;;;;4990748;28;20665;-86
2022/04/03 05:59:27;;;;;;;0.93;0.93;;;-1.90;99.90;;;;;;5000642;28;20194;-86
2022/04/03 06:10:11;;;;;;;0.70;0.70;;;-1.10;99.90;;;;;;4865646;29;20230;-87
2022/04/03 06:17:37;;;;;;;0.70;0.70;;;-0.40;99.90;;;;;;4920580;28;20250;-86
2022/04/03 06:34:40;;;;;;;;;;;;;;;;;;;;;
2022/04/03 06:37:30;;;;;;;0.70;0.70;;;0.40;99.90;;;;;;4751931;30;20204;-87
2022/04/03 06:44:32;;;;;;;0.70;0.70;;;1.00;99.90;;;;;;4753260;30;20756;-86
2022/04/03 07:02:59;;;;;;;0.80;0.80;;;2.30;99.90;;;;;;4718236;30;20275;-87
2022/04/03 07:08:48;;;;;;;1.58;1.33;;;2.80;99.90;;;;;;4986202;28;20273;-80
2022/04/03 07:11:15;;;;;;;0.80;0.80;;;2.90;99.90;;;;;;4995444;28;20302;-80
2022/04/03 07:14:22;;;;;;;0.65;0.65;;;2.70;99.90;;;;;;4995246;28;20573;-80
2022/04/03 07:21:24;;;;;;;;;;;;;;;;;;;;;
2022/04/03 07:24:05;;;;;;;0.70;0.70;;;3.10;99.90;;;;;;4935521;29;20209;-80
2022/04/03 07:27:10;;;;;;;0.93;0.93;;;3.40;99.90;;;;;;4919772;28;20208;-80
2022/04/03 07:29:35;;;;;;;0.80;0.80;;;3.60;99.90;;;;;;4863965;29;20686;-80
2022/04/03 07:32:02;;;;;;;0.73;0.73;;;3.80;99.90;;;;;;4879709;29;20231;-79
2022/04/03 07:34:27;;;;;;;0.80;0.80;;;4.00;99.90;;;;;;4899194;29;20204;-80
2022/04/03 07:36:56;;;;;;;0.80;0.80;;;4.20;99.90;;;;;;4935411;29;20723;-80
2022/04/03 07:39:30;;;;;;;0.80;0.80;;;4.30;99.90;;;;;;4935951;29;20285;-80
2022/04/03 07:41:56;;;;;;;0.80;0.80;;;4.40;99.90;;;;;;4936096;29;20249;-80
2022/04/03 07:44:22;;;;;;;0.70;0.70;;;4.30;99.90;;;;;;4919819;29;20209;-80
2022/04/03 07:46:47;;;;;;;0.63;0.63;;;4.20;99.90;;;;;;4935932;29;20213;-80
2022/04/03 07:49:13;;;;;;;0.70;0.70;;;4.20;99.90;;;;;;4935835;29;20248;-78
2022/04/03 07:51:39;;;;;;;0.70;0.70;;;4.20;99.90;;;;;;4971235;28;20220;-79
2022/04/03 07:54:05;;;;;;;0.60;0.60;;;4.30;99.90;;;;;;4976329;28;20686;-79
2022/04/03 08:04:20;;;;;;;0.70;0.70;;;5.30;98.00;;;;;;4859068;29;20268;-80
2022/04/03 08:06:45;;;;;;;0.70;0.70;;;5.80;96.50;;;;;;4916041;29;20229;-80
2022/04/03 08:09:12;;;;;;;0.70;0.70;;;6.10;95.80;;;;;;4901867;29;20245;-80
2022/04/03 08:11:42;;;;;;;0.80;0.80;;;6.30;92.80;;;;;;4900140;29;20194;-80
2022/04/03 08:14:09;;;;;;;0.70;0.70;;;6.00;93.20;;;;;;4916331;29;20207;-80
2022/04/03 08:16:34;;;;;;;0.70;0.70;;;6.20;93.60;;;;;;4900104;29;20205;-80
2022/04/03 08:19:03;;;;;;;0.65;0.65;;;6.30;92.40;;;;;;4900377;29;20198;-81
2022/04/03 08:21:34;;;;;;;0.77;0.77;;;6.50;92.10;;;;;;4899194;29;20297;-80
2022/04/03 08:24:00;;;;;;;0.63;0.63;;;6.70;92.50;;;;;;4899786;29;20632;-80
2022/04/03 08:26:26;;;;;;;1.38;1.20;;;6.90;90.70;;;;;;4899971;29;20210;-80
2022/04/03 08:28:55;;;;;;;0.77;0.77;;;7.00;90.20;;;;;;4900591;29;20202;-81
2022/04/03 08:31:27;;;;;;;0.70;0.70;;;7.10;89.30;;;;;;4915388;29;20205;-81
2022/04/03 08:33:53;;;;;;;0.70;0.70;;;7.10;86.60;;;;;;4915706;29;20203;-78
2022/04/03 08:36:19;;;;;;;0.70;0.70;;;7.10;87.60;;;;;;4915825;29;20205;-78
2022/04/03 08:38:46;;;;;;;0.70;0.70;;;7.20;90.20;;;;;;4924660;28;20212;-81
2022/04/03 08:41:12;;;;;;;0.60;0.60;;;7.50;87.40;;;;;;4993714;28;20682;-80
2022/04/03 08:43:40;;;;;;;0.70;0.70;;;7.40;85.80;;;;;;4993352;28;20199;-81
2022/04/03 08:46:09;;;;;;;0.80;0.80;;;7.50;89.00;;;;;;4994771;28;20666;-80
2022/04/03 08:48:37;;;;;;;0.70;0.70;;;7.70;88.90;;;;;;4993345;28;20200;-80
2022/04/03 08:51:04;;;;;;;0.73;0.73;;;7.90;87.80;;;;;;4994551;28;20691;-80
2022/04/03 08:53:31;;;;;;;0.80;0.77;;;8.10;86.00;;;;;;4992979;28;20227;-79
2022/04/03 08:55:57;;;;;;;0.70;0.70;;;8.20;87.40;;;;;;4973680;28;20196;-79
2022/04/03 08:58:23;;;;;;;0.60;0.60;;;8.20;87.40;;;;;;4989416;28;20260;-80
2022/04/03 09:00:49;;;;;;;0.75;0.75;;;8.40;87.40;;;;;;4989004;28;20230;-80
2022/04/03 09:03:15;;;;;;;1.35;1.25;;;8.40;83.50;;;;;;4989889;28;20200;-80
2022/04/03 09:05:43;;;;;;;0.70;0.70;;;8.50;82.10;;;;;;4989833;28;20274;-80
2022/04/03 09:08:10;;;;;;;0.70;0.70;;;8.30;84.00;;;;;;4974784;28;20226;-79
2022/04/03 09:10:36;;;;;;;0.70;0.70;;;8.30;85.10;;;;;;4989416;28;20226;-80
2022/04/03 09:13:02;;;;;;;0.70;0.70;;;8.50;85.10;;;;;;4976822;28;20210;-80
2022/04/03 09:15:30;;;;;;;0.60;0.60;;;8.50;82.80;;;;;;4976600;28;20535;-80
2022/04/03 09:18:01;;;;;;;0.70;0.70;;;8.60;83.20;;;;;;4976836;28;20636;-80
2022/04/03 09:20:40;;;;;;;0.60;0.60;;;8.30;83.00;;;;;;4975648;28;20200;-80
2022/04/03 09:23:09;;;;;;;0.60;0.60;;;8.40;82.80;;;;;;4975870;28;20732;-80
2022/04/03 09:25:43;;;;;;;0.60;0.60;;;8.40;79.50;;;;;;4975682;28;20210;-80
2022/04/03 09:28:17;;;;;;;0.60;0.60;;;8.40;81.40;;;;;;4975739;28;20289;-80
2022/04/03 09:30:49;;;;;;;0.70;0.70;;;8.70;79.70;;;;;;4972245;28;20295;-80
2022/04/03 09:33:20;;;;;;;0.60;0.60;;;8.70;81.40;;;;;;4972669;28;20560;-81
2022/04/03 09:35:54;;;;;;;0.60;0.60;;;8.60;79.20;;;;;;4973492;28;20620;-80
2022/04/03 09:38:20;;;;;;;0.70;0.70;;;8.50;78.10;;;;;;4957016;28;20200;-81
2022/04/03 09:40:48;;;;;;;0.60;0.60;;;8.70;82.00;;;;;;4957617;28;20203;-80
2022/04/03 09:43:40;;;;;;;0.70;0.70;;;8.50;79.30;;;;;;4973571;28;20297;-81
2022/04/03 09:46:11;;;;;;;0.60;0.60;;;8.90;78.10;;;;;;4973363;28;20204;-80
2022/04/03 09:48:43;;;;;;;0.60;0.60;;;9.10;77.70;;;;;;4977577;28;20199;-80
2022/04/03 09:51:22;;;;;;;0.63;0.63;;;9.40;79.40;;;;;;4975588;28;20243;-80
2022/04/03 09:53:53;;;;;;;0.60;0.60;;;9.80;76.90;;;;;;4991644;28;20203;-79
2022/04/03 09:56:24;;;;;;;0.60;0.60;;;10.20;76.00;;;;;;4991872;28;20642;-81
2022/04/03 09:58:50;;;;;;;0.60;0.60;;;10.50;74.10;;;;;;4975492;28;20290;-80
2022/04/03 10:01:26;;;;;;;0.63;0.63;;;10.40;71.60;;;;;;4975739;28;20299;-81
2022/04/03 10:03:53;;;;;;;0.50;0.50;;;10.00;72.30;;;;;;4975353;28;20572;-80
2022/04/03 10:06:20;;;;;;;0.60;0.60;;;10.00;73.00;;;;;;4991425;28;20615;-80
2022/04/03 10:08:59;;;;;;;0.85;0.85;;;9.80;73.50;;;;;;4991337;28;20231;-80
2022/04/03 10:12:05;;;;;;;0.60;0.60;;;9.70;74.30;;;;;;4991263;28;20261;-80
2022/04/03 10:15:42;;;;;;;0.63;0.63;;;9.50;74.20;;;;;;4991251;28;20188;-81
2022/04/03 10:18:08;;;;;;;0.60;0.60;;;9.50;73.80;;;;;;4955031;28;20671;-80
2022/04/03 10:20:40;;;;;;;1.25;1.15;;;9.80;74.20;;;;;;4992570;28;20310;-80
2022/04/03 10:23:17;;;;;;;0.60;0.60;;;9.70;72.80;;;;;;4993715;28;20571;-80
2022/04/03 10:26:09;;;;;;;0.70;0.70;;;9.60;72.70;;;;;;4975418;28;20200;-80
2022/04/03 10:28:38;;;;;;;0.60;0.60;;;9.10;71.90;;;;;;4964955;28;20671;-80
2022/04/03 10:31:17;;;;;;;0.65;0.65;;;9.10;73.00;;;;;;4975474;28;20216;-80
2022/04/03 10:33:44;;;;;;;0.60;0.60;;;9.00;72.90;;;;;;4974899;28;20304;-80
2022/04/03 10:36:44;;;;;;;;;;;;;;;;;;;;;
2022/04/03 10:43:02;;;;;;;0.60;0.60;;;9.20;75.50;;;;;;4879082;29;20210;-80
2022/04/03 10:49:44;;;;;;;0.70;0.70;;;9.40;76.00;;;;;;4865591;29;20207;-80
2022/04/03 10:53:02;;;;;;;0.63;0.63;;;9.50;73.60;;;;;;4863518;29;20208;-80
2022/04/03 10:55:36;;;;;;;0.60;0.60;;;9.30;72.70;;;;;;4855888;29;20203;-80
2022/04/03 10:58:18;;;;;;;0.60;0.60;;;9.50;73.80;;;;;;4863327;29;20218;-80
2022/04/03 11:00:47;;;;;;;0.60;0.60;;;9.70;74.40;;;;;;4878915;29;20216;-80
2022/04/03 11:03:19;;;;;;;0.60;0.60;;;9.90;73.00;;;;;;4878843;29;20293;-80
2022/04/03 11:05:47;;;;;;;0.60;0.60;;;10.10;73.40;;;;;;4863473;29;20731;-80
2022/04/03 11:08:18;;;;;;;0.60;0.60;;;9.80;70.90;;;;;;4863022;29;20731;-79
2022/04/03 11:10:53;;;;;;;0.65;0.65;;;9.70;74.80;;;;;;4878774;29;20255;-80
2022/04/03 11:13:37;;;;;;;0.70;0.70;;;9.80;73.00;;;;;;4863286;29;20226;-79
2022/04/03 11:16:12;;;;;;;0.60;0.60;;;9.60;72.30;;;;;;4901717;29;20204;-79
2022/04/03 11:19:05;;;;;;;0.70;0.70;;;9.60;72.90;;;;;;4971276;28;20206;-79
2022/04/03 11:21:38;;;;;;;0.60;0.60;;;9.60;72.10;;;;;;4971179;28;20565;-79
2022/04/03 11:24:09;;;;;;;0.60;0.60;;;9.60;72.10;;;;;;4975860;28;20192;-78
2022/04/03 11:26:39;;;;;;;0.60;0.60;;;9.50;75.80;;;;;;4990529;28;20268;-79
2022/04/03 11:29:06;;;;;;;0.60;0.60;;;9.50;72.60;;;;;;4974390;28;20292;-80
2022/04/03 11:31:43;;;;;;;;;;;;;;;;;;;;;
2022/04/03 11:34:16;;;;;;;0.70;0.70;;;9.20;71.60;;;;;;4956348;28;20197;-80
2022/04/03 11:36:43;;;;;;;0.60;0.60;;;9.10;72.90;;;;;;4971050;28;20691;-80
2022/04/03 11:39:11;;;;;;;0.60;0.60;;;9.10;74.60;;;;;;4971159;28;20200;-78
2022/04/03 11:41:39;;;;;;;0.75;0.75;;;9.20;72.40;;;;;;4979298;28;20192;-79
2022/04/03 11:44:20;;;;;;;0.60;0.60;;;9.40;73.10;;;;;;4974268;28;20251;-80
2022/04/03 11:47:07;;;;;;;0.60;0.60;;;9.70;74.90;;;;;;4991287;28;20204;-80
2022/04/03 11:49:36;;;;;;;0.60;0.60;;;10.00;72.20;;;;;;4991853;28;20572;-81
2022/04/03 11:52:05;;;;;;;0.60;0.60;;;9.90;71.90;;;;;;4976031;28;20199;-81
2022/04/03 11:54:32;;;;;;;0.60;0.60;;;9.90;72.50;;;;;;4991317;28;20287;-81
2022/04/03 11:57:03;;;;;;;0.60;0.60;;;9.80;71.50;;;;;;4976371;28;20189;-81
2022/04/03 11:59:33;;;;;;;0.70;0.70;;;9.70;71.80;;;;;;4974591;28;20554;-81
2022/04/03 12:01:59;;;;;;;0.63;0.63;;;9.50;72.30;;;;;;4973938;28;20282;-80
2022/04/03 12:04:25;;;;;;;0.68;0.68;;;9.40;76.00;;;;;;4975678;28;20576;-80
2022/04/03 12:06:58;;;;;;;0.60;0.60;;;9.20;74.20;;;;;;4977025;28;20211;-80
2022/04/03 12:09:24;;;;;;;0.50;0.50;;;9.20;76.60;;;;;;4977744;28;20266;-79
2022/04/03 12:11:53;;;;;;;0.60;0.60;;;9.40;75.10;;;;;;4978026;28;20230;-80
2022/04/03 12:14:30;;;;;;;0.60;0.60;;;9.20;74.30;;;;;;4978191;28;20215;-81
2022/04/03 12:16:58;;;;;;;0.60;0.60;;;9.30;75.70;;;;;;4995523;28;20195;-80
2022/04/03 12:19:27;;;;;;;0.65;0.65;;;9.30;76.20;;;;;;4994244;28;20215;-78
2022/04/03 12:21:56;;;;;;;0.70;0.70;;;9.00;74.40;;;;;;4977603;28;20265;-78
2022/04/03 12:24:27;;;;;;;0.70;0.70;;;9.00;76.00;;;;;;4995062;28;20290;-79
2022/04/03 12:26:54;;;;;;;0.60;0.60;;;9.10;75.50;;;;;;4978385;28;20196;-79
2022/04/03 12:29:21;;;;;;;0.70;0.70;;;9.20;75.90;;;;;;4994747;28;20685;-80
2022/04/03 12:32:00;;;;;;;0.60;0.60;;;9.20;76.00;;;;;;4993749;28;20202;-80
2022/04/03 12:34:29;;;;;;;0.60;0.60;;;9.20;76.40;;;;;;4993446;28;20230;-79
2022/04/03 12:36:57;;;;;;;0.65;0.65;;;9.40;74.10;;;;;;4993202;28;20226;-80
2022/04/03 12:39:48;;;;;;;0.63;0.63;;;9.10;75.10;;;;;;4993047;28;20195;-80
2022/04/03 12:42:31;;;;;;;0.60;0.60;;;9.20;75.80;;;;;;4994417;28;20714;-79
2022/04/03 12:45:08;;;;;;;0.95;0.95;;;9.20;73.90;;;;;;4977154;28;20253;-79
2022/04/03 12:47:40;;;;;;;0.60;0.60;;;9.00;73.30;;;;;;4994133;28;20195;-79
2022/04/03 12:50:05;;;;;;;0.60;0.60;;;8.90;73.50;;;;;;4993259;28;20218;-79
2022/04/03 12:52:43;;;;;;;0.60;0.60;;;9.00;76.30;;;;;;4977111;28;20199;-79
2022/04/03 12:55:33;;;;;;;0.60;0.60;;;9.40;76.30;;;;;;4977203;28;20655;-80
2022/04/03 13:01:09;;;;;;;0.60;0.60;;;9.70;73.40;;;;;;4994203;28;20264;-79
2022/04/03 13:03:37;;;;;;;0.60;0.60;;;9.50;72.90;;;;;;4976675;28;20223;-80
2022/04/03 13:06:08;;;;;;;0.60;0.60;;;9.40;74.70;;;;;;4992908;28;20286;-80
2022/04/03 13:08:46;;;;;;;0.70;0.70;;;9.20;73.50;;;;;;4992652;28;20231;-80
2022/04/03 13:11:30;;;;;;;0.60;0.60;;;9.20;74.40;;;;;;4992992;28;20627;-79
2022/04/03 13:14:22;;;;;;;0.70;0.70;;;9.30;73.80;;;;;;4976870;28;20203;-79
2022/04/03 13:16:51;;;;;;;0.60;0.60;;;9.40;76.20;;;;;;4992898;28;20251;-79
2022/04/03 13:19:21;;;;;;;0.60;0.60;;;9.50;76.20;;;;;;4976740;28;20669;-79
2022/04/03 13:21:54;;;;;;;0.70;0.70;;;9.70;76.40;;;;;;4992861;28;20206;-79
2022/04/03 13:24:20;;;;;;;0.60;0.60;;;9.40;73.50;;;;;;4976770;28;20712;-80
2022/04/03 13:26:46;;;;;;;0.60;0.60;;;9.30;75.30;;;;;;4976805;28;20651;-79
2022/04/03 13:29:13;;;;;;;0.60;0.60;;;9.40;76.50;;;;;;4994292;28;20187;-79
2022/04/03 13:31:40;;;;;;;0.60;0.60;;;9.60;75.60;;;;;;4973071;28;20266;-78
2022/04/03 13:34:07;;;;;;;0.60;0.60;;;9.70;75.30;;;;;;4979535;28;20192;-79
2022/04/03 13:36:33;;;;;;;0.63;0.63;;;9.60;74.10;;;;;;4975623;28;20673;-79
2022/04/03 13:39:02;;;;;;;0.60;0.60;;;9.70;77.00;;;;;;4976240;28;20207;-79
2022/04/03 13:41:38;;;;;;;0.60;0.60;;;9.80;73.40;;;;;;4976411;28;20211;-80
2022/04/03 13:44:05;;;;;;;0.55;0.55;;;10.10;74.30;;;;;;4992411;28;20571;-79
2022/04/03 13:46:33;;;;;;;0.60;0.60;;;10.10;73.80;;;;;;4976254;28;20294;-79
2022/04/03 13:48:59;;;;;;;0.57;0.57;;;10.20;73.70;;;;;;4976626;28;20203;-80
2022/04/03 13:51:26;;;;;;;0.70;0.70;;;10.20;73.80;;;;;;4976356;28;20740;-79
2022/04/03 13:53:54;;;;;;;0.70;0.70;;;10.20;73.50;;;;;;4993724;28;20242;-79
2022/04/03 13:56:22;;;;;;;0.60;0.60;;;10.10;70.90;;;;;;4993764;28;20442;-80
2022/04/03 13:58:48;;;;;;;0.60;0.60;;;10.00;72.10;;;;;;4994837;28;20609;-80
2022/04/03 14:01:14;;;;;;;0.60;0.60;;;9.80;71.70;;;;;;5001108;28;20207;-80
2022/04/03 14:03:40;;;;;;;0.60;0.60;;;9.70;74.80;;;;;;4996277;28;20725;-79
2022/04/03 14:06:06;;;;;;;0.68;0.68;;;9.90;72.60;;;;;;4979725;28;20488;-79
2022/04/03 14:08:34;;;;;;;0.60;0.60;;;9.80;73.10;;;;;;4979912;28;20701;-79
2022/04/03 14:11:00;;;;;;;0.60;0.60;;;9.70;73.70;;;;;;4979829;28;20823;-79
2022/04/03 14:13:28;;;;;;;0.60;0.60;;;9.50;74.10;;;;;;4979487;28;20569;-79
2022/04/03 14:15:55;;;;;;;0.60;0.60;;;9.40;75.00;;;;;;4979196;28;20663;-79
2022/04/03 14:18:22;;;;;;;0.60;0.60;;;9.00;75.10;;;;;;4979614;28;20199;-79
2022/04/03 14:20:49;;;;;;;0.60;0.60;;;8.90;76.30;;;;;;4996021;28;20200;-79
2022/04/03 14:23:15;;;;;;;0.70;0.70;;;8.80;76.30;;;;;;4979933;28;20199;-79
2022/04/03 14:25:41;;;;;;;1.40;0.93;;;8.70;76.70;;;;;;4979506;28;20338;-79
2022/04/03 14:28:07;;;;;;;0.60;0.60;;;8.80;77.50;;;;;;4979768;28;20666;-79
2022/04/03 14:30:33;;;;;;;0.70;0.70;;;8.90;76.60;;;;;;4979148;28;20217;-79
2022/04/03 14:32:58;;;;;;;0.60;0.60;;;8.80;77.10;;;;;;4978753;28;20200;-79
2022/04/03 14:35:25;;;;;;;0.60;0.60;;;8.90;77.30;;;;;;4978425;28;20282;-79
2022/04/03 14:37:51;;;;;;;0.65;0.65;;;8.80;76.10;;;;;;4978998;28;20227;-79
2022/04/03 14:40:17;;;;;;;0.60;0.60;;;8.70;77.30;;;;;;4996143;28;20206;-79